Time;durP1;ratioP1;P1;durP2;ratioP2;P2;SDS_P1;SDS_P2;PMS_P1;PMS_P2;Temp;Humidity;BMP_temperature;BMP_pressure;BME280_temperature;BME280_humidity;BME280_pressure;Samples;Min_cycle;Max_cycle;Signal;HPM_P1;HPM_P2
2022/08/17 00:01:23;;;;;;;17.15;9.58;;;;;;;16.72;100.00;99572.30;1682911;85;21057;-68
2022/08/17 00:03:51;;;;;;;17.40;9.58;;;;;;;16.70;100.00;99572.88;1685193;84;21101;-69
2022/08/17 00:06:26;;;;;;;24.00;9.98;;;;;;;16.74;100.00;99578.36;1677618;85;21255;-69
2022/08/17 00:08:57;;;;;;;14.38;10.03;;;;;;;16.72;100.00;99578.94;1678047;85;21048;-70
2022/08/17 00:11:30;;;;;;;18.90;10.43;;;;;;;16.69;100.00;99579.17;1677306;85;21071;-67
2022/08/17 00:14:04;;;;;;;16.37;9.83;;;;;;;16.70;100.00;99574.21;1677193;85;21049;-68
2022/08/17 00:16:35;;;;;;;17.62;9.88;;;;;;;16.69;100.00;99573.86;1676588;83;21084;-69
2022/08/17 00:19:05;;;;;;;19.57;9.58;;;;;;;16.67;100.00;99581.92;1677278;85;21201;-69
2022/08/17 00:21:33;;;;;;;18.67;10.00;;;;;;;16.68;100.00;99581.44;1681758;85;25625;-68
2022/08/17 00:24:00;;;;;;;18.57;9.30;;;;;;;16.64;100.00;99579.98;1677857;85;21096;-70
2022/08/17 00:26:26;;;;;;;22.22;10.05;;;;;;;16.61;100.00;99581.51;1681457;85;21045;-69
2022/08/17 00:28:53;;;;;;;17.30;9.50;;;;;;;16.58;100.00;99576.78;1676540;85;21089;-68
2022/08/17 00:31:20;;;;;;;23.30;10.00;;;;;;;16.56;100.00;99574.73;1677082;85;21278;-68
2022/08/17 00:33:48;;;;;;;21.45;9.68;;;;;;;16.56;100.00;99572.53;1676314;85;21080;-67
2022/08/17 00:36:15;;;;;;;24.00;9.48;;;;;;;16.60;100.00;99574.51;1677799;85;21532;-68
2022/08/17 00:38:41;;;;;;;17.92;9.85;;;;;;;16.58;100.00;99574.61;1677629;85;21021;-69
2022/08/17 00:41:16;;;;;;;17.00;9.43;;;;;;;16.50;100.00;99577.81;1677834;85;21096;-68
2022/08/17 00:43:52;;;;;;;20.82;10.25;;;;;;;16.48;100.00;99577.06;1676960;85;21126;-68
2022/08/17 00:46:25;;;;;;;20.08;10.00;;;;;;;16.40;100.00;99566.59;1677310;85;21073;-69
2022/08/17 00:48:51;;;;;;;16.37;10.23;;;;;;;16.36;100.00;99563.33;1677733;85;21101;-68
2022/08/17 00:51:45;;;;;;;17.05;9.63;;;;;;;16.36;100.00;99564.66;1676321;85;21074;-68
2022/08/17 00:54:23;;;;;;;20.72;10.23;;;;;;;16.34;100.00;99557.27;1675290;85;21620;-67
2022/08/17 00:56:53;;;;;;;19.17;10.63;;;;;;;16.27;100.00;99559.98;1671013;85;21398;-68
2022/08/17 00:59:22;;;;;;;16.80;10.30;;;;;;;16.22;100.00;99562.95;1671286;85;21134;-69
2022/08/17 01:01:49;;;;;;;22.50;11.18;;;;;;;16.19;100.00;99562.30;1655297;85;21501;-69
2022/08/17 01:04:17;;;;;;;15.35;9.85;;;;;;;16.12;100.00;99568.52;1649131;86;21110;-68
2022/08/17 01:06:45;;;;;;;16.57;9.60;;;;;;;16.11;100.00;99569.00;1650714;86;21127;-68
2022/08/17 01:09:13;;;;;;;17.57;10.13;;;;;;;16.11;100.00;99572.14;1648098;86;21878;-68
2022/08/17 01:11:39;;;;;;;17.02;10.03;;;;;;;16.10;100.00;99575.28;1648885;86;21116;-68
2022/08/17 01:14:12;;;;;;;17.52;10.23;;;;;;;16.08;100.00;99566.56;1650186;86;21072;-68
2022/08/17 01:16:36;;;;;;;16.70;10.15;;;;;;;16.13;100.00;99556.95;1647155;87;21073;-67
2022/08/17 01:19:10;;;;;;;21.20;10.38;;;;;;;16.12;100.00;99554.75;1630724;86;21568;-68
2022/08/17 01:21:51;;;;;;;26.57;11.10;;;;;;;16.11;100.00;99562.84;1658017;85;21096;-68
2022/08/17 01:24:18;;;;;;;15.78;9.63;;;;;;;16.11;100.00;99565.02;1649339;86;21097;-68
2022/08/17 01:26:45;;;;;;;18.67;9.73;;;;;;;16.14;100.00;99558.64;1649641;86;21112;-68
2022/08/17 01:29:11;;;;;;;16.00;10.00;;;;;;;16.12;100.00;99548.11;1650157;85;21088;-69
2022/08/17 01:31:46;;;;;;;17.45;9.78;;;;;;;16.12;100.00;99552.09;1647710;87;21124;-67
2022/08/17 01:34:14;;;;;;;20.30;10.95;;;;;;;16.12;100.00;99552.09;1648883;86;21396;-68
2022/08/17 01:36:44;;;;;;;19.80;11.45;;;;;;;16.11;100.00;99546.42;1648831;87;21010;-69
2022/08/17 01:39:31;;;;;;;16.52;10.65;;;;;;;16.10;100.00;99544.73;1649255;86;21113;-68
2022/08/17 01:42:12;;;;;;;27.82;11.40;;;;;;;16.06;100.00;99551.21;1649325;86;21061;-69
2022/08/17 01:44:39;;;;;;;24.82;10.58;;;;;;;16.06;100.00;99544.57;1650018;86;21088;-68
2022/08/17 01:47:06;;;;;;;20.45;11.43;;;;;;;16.05;100.00;99545.51;1649618;86;21573;-69
2022/08/17 01:49:33;;;;;;;19.07;11.20;;;;;;;16.10;100.00;99544.73;1649450;86;21095;-68
2022/08/17 01:52:08;;;;;;;14.98;10.50;;;;;;;16.09;100.00;99540.84;1648802;86;21141;-68
2022/08/17 01:54:38;;;;;;;17.17;10.63;;;;;;;16.13;100.00;99543.67;1671234;85;21085;-69
2022/08/17 01:57:04;;;;;;;27.35;12.33;;;;;;;16.18;100.00;99539.37;1635502;86;21527;-68
2022/08/17 01:59:32;;;;;;;23.20;12.07;;;;;;;16.18;100.00;99539.37;1637845;86;21674;-67
2022/08/17 02:01:59;;;;;;;15.68;10.58;;;;;;;16.15;100.00;99530.66;1642012;86;21546;-68
2022/08/17 02:04:25;;;;;;;20.37;11.43;;;;;;;16.16;100.00;99528.84;1615924;88;21682;-67
2022/08/17 02:06:52;;;;;;;20.08;11.93;;;;;;;16.17;100.00;99527.02;1619588;87;21582;-67
2022/08/17 02:09:24;;;;;;;22.37;10.98;;;;;;;16.18;100.00;99538.04;1677723;85;22064;-70
2022/08/17 02:11:52;;;;;;;20.05;11.48;;;;;;;16.18;100.00;99542.03;1676673;85;21502;-68
2022/08/17 02:14:19;;;;;;;18.07;11.03;;;;;;;16.18;100.00;99542.03;1676442;85;21052;-68
2022/08/17 02:16:46;;;;;;;22.70;11.73;;;;;;;16.18;100.00;99539.37;1676337;85;21053;-67
2022/08/17 02:19:14;;;;;;;19.52;10.75;;;;;;;16.11;100.00;99541.11;1676670;85;21158;-70
2022/08/17 02:21:44;;;;;;;20.32;11.48;;;;;;;16.12;100.00;99537.48;1680567;85;21032;-68
2022/08/17 02:24:15;;;;;;;16.10;11.68;;;;;;;16.11;100.00;99534.95;1676386;85;21871;-68
2022/08/17 02:26:42;;;;;;;21.97;12.05;;;;;;;16.10;100.00;99541.20;1676611;85;21046;-69
2022/08/17 02:29:08;;;;;;;18.80;11.30;;;;;;;16.10;100.00;99537.22;1677325;85;21000;-68
2022/08/17 02:31:35;;;;;;;17.80;11.43;;;;;;;16.03;100.00;99535.47;1676735;85;21126;-68
2022/08/17 02:34:02;;;;;;;22.10;11.33;;;;;;;16.04;100.00;99536.34;1676425;85;21073;-68
2022/08/17 02:36:29;;;;;;;19.32;11.93;;;;;;;16.03;100.00;99526.17;1676391;85;21886;-68
2022/08/17 02:38:57;;;;;;;19.57;11.30;;;;;;;16.05;100.00;99528.25;1678050;85;21105;-68
2022/08/17 02:41:23;;;;;;;17.75;12.20;;;;;;;16.03;100.00;99535.95;1677684;85;21100;-69
2022/08/17 02:43:50;;;;;;;16.87;10.88;;;;;;;15.99;100.00;99535.33;1676040;85;21105;-68
2022/08/17 02:46:18;;;;;;;18.90;11.03;;;;;;;15.98;100.00;99536.27;1676146;85;21112;-68
2022/08/17 02:48:44;;;;;;;23.12;11.68;;;;;;;15.95;100.00;99537.81;1675669;85;21111;-68
2022/08/17 02:51:11;;;;;;;22.65;11.55;;;;;;;15.93;100.00;99533.09;1676216;85;21034;-67
2022/08/17 02:53:37;;;;;;;18.55;11.57;;;;;;;15.90;100.00;99520.03;1677233;85;21625;-68
2022/08/17 02:56:04;;;;;;;16.97;10.55;;;;;;;15.94;100.00;99522.83;1677024;85;21056;-69
2022/08/17 02:58:31;;;;;;;18.00;11.45;;;;;;;15.93;100.00;99522.47;1677216;85;21033;-68
2022/08/17 03:00:57;;;;;;;17.65;11.45;;;;;;;15.95;100.00;99513.92;1676064;85;21800;-68
2022/08/17 03:03:23;;;;;;;17.87;10.60;;;;;;;15.98;100.00;99520.34;1676983;85;21093;-69
2022/08/17 03:05:51;;;;;;;16.55;11.10;;;;;;;15.97;100.00;99523.12;1676473;85;21045;-66
2022/08/17 03:08:18;;;;;;;20.80;11.60;;;;;;;15.97;100.00;99523.96;1677080;85;21120;-68
2022/08/17 03:10:45;;;;;;;19.92;11.15;;;;;;;15.98;100.00;99522.98;1675248;85;21143;-69
2022/08/17 03:13:13;;;;;;;19.60;10.03;;;;;;;16.06;100.00;99525.14;1676849;85;21081;-69
2022/08/17 03:15:43;;;;;;;21.17;11.22;;;;;;;16.06;100.00;99520.67;1677116;85;21060;-68
2022/08/17 03:18:12;;;;;;;18.12;11.38;;;;;;;16.05;100.00;99524.27;1674783;85;21369;-68
2022/08/17 03:20:39;;;;;;;16.20;10.93;;;;;;;16.01;100.00;99514.83;1676693;84;21034;-71
2022/08/17 03:23:05;;;;;;;13.60;9.65;;;;;;;16.03;100.00;99517.36;1676396;85;21069;-68
2022/08/17 03:25:37;;;;;;;15.70;10.05;;;;;;;16.09;100.00;99523.10;1677832;85;21161;-69
2022/08/17 03:28:04;;;;;;;17.00;11.22;;;;;;;16.13;100.00;99511.31;1676927;85;21101;-68
2022/08/17 03:30:31;;;;;;;16.12;10.35;;;;;;;16.33;100.00;99515.23;1676326;85;21041;-68
2022/08/17 03:33:00;;;;;;;15.98;9.25;;;;;;;16.63;100.00;99518.45;1676139;85;21117;-68
2022/08/17 03:36:23;;;;;;;18.25;10.08;;;;;;;16.89;100.00;99506.83;1795795;79;22668;-69
2022/08/17 03:38:50;;;;;;;15.65;9.70;;;;;;;17.15;100.00;99502.72;1756384;81;21081;-68
2022/08/17 03:41:17;;;;;;;12.95;9.23;;;;;;;17.46;100.00;99504.41;1756231;81;21104;-68
2022/08/17 03:43:43;;;;;;;15.38;9.78;;;;;;;17.74;100.00;99511.16;1737236;81;20958;-68
2022/08/17 03:57:10;;;;;;;12.37;8.48;;;;;;;19.12;100.00;99516.72;1756092;81;21068;-70
2022/08/17 03:59:37;;;;;;;10.78;8.10;;;;;;;19.44;100.00;99513.58;1756843;81;21117;-70
2022/08/17 04:02:08;;;;;;;15.98;8.28;;;;;;;19.66;100.00;99509.09;1756312;81;21081;-69
2022/08/17 04:04:35;;;;;;;16.62;8.30;;;;;;;19.81;100.00;99513.17;1756749;81;21112;-69
2022/08/17 04:07:04;;;;;;;17.75;7.72;;;;;;;19.87;100.00;99517.12;1756307;81;21029;-69
2022/08/17 04:09:31;;;;;;;19.62;8.55;;;;;;;19.91;100.00;99518.07;1756425;81;21069;-69
2022/08/17 04:11:58;;;;;;;13.65;8.68;;;;;;;19.97;100.00;99517.18;1756342;81;21052;-69
2022/08/17 04:14:24;;;;;;;19.02;8.65;;;;;;;20.05;100.00;99521.39;1773229;80;21087;-70
2022/08/17 04:16:51;;;;;;;12.00;7.58;;;;;;;20.19;100.00;99516.19;1790707;80;21043;-68
2022/08/17 04:19:17;;;;;;;10.93;7.45;;;;;;;20.38;100.00;99516.27;1790895;80;21229;-69
2022/08/17 04:21:44;;;;;;;10.85;7.58;;;;;;;20.62;100.00;99529.35;1790361;80;21059;-68
2022/08/17 04:24:10;;;;;;;12.88;7.85;;;;;;;20.84;100.00;99528.77;1790975;80;21115;-69
2022/08/17 04:26:36;;;;;;;14.33;7.10;;;;;;;21.10;100.00;99518.41;1790660;80;21454;-69
2022/08/17 04:29:03;;;;;;;12.98;6.90;;;;;;;21.37;100.00;99523.05;1790482;80;21071;-68
2022/08/17 04:31:30;;;;;;;10.50;7.20;;;;;;;21.64;100.00;99521.54;1790764;80;21097;-69
2022/08/17 04:33:57;;;;;;;11.12;7.17;;;;;;;21.82;100.00;99515.80;1790448;80;21549;-69
2022/08/17 04:36:23;;;;;;;16.25;6.80;;;;;;;22.03;100.00;99510.25;1780588;80;21025;-69
2022/08/17 04:38:50;;;;;;;13.25;7.22;;;;;;;22.32;100.00;99505.33;1779436;80;21064;-69
2022/08/17 04:44:03;;;;;;;11.08;6.67;;;;;;;23.03;100.00;99504.70;1779521;80;21234;-68
2022/08/17 04:46:34;;;;;;;10.48;6.50;;;;;;;23.47;100.00;99495.36;1779050;80;21029;-69
2022/08/17 04:49:05;;;;;;;13.98;7.53;;;;;;;23.84;100.00;99502.40;1778893;80;25612;-68
2022/08/17 04:51:38;;;;;;;15.32;7.78;;;;;;;24.18;100.00;99507.83;1778849;80;21079;-69
2022/08/17 04:54:08;;;;;;;10.08;6.53;;;;;;;24.28;100.00;99510.39;1778749;80;21057;-69
2022/08/17 04:56:35;;;;;;;11.10;6.33;;;;;;;24.34;98.34;99507.08;1779100;80;21072;-69
2022/08/17 04:59:07;;;;;;;15.35;6.60;;;;;;;24.44;96.90;99505.09;1778769;80;21033;-69
2022/08/17 05:01:36;;;;;;;11.45;8.20;;;;;;;24.27;96.07;99501.97;1778851;80;21037;-71
2022/08/17 05:04:06;;;;;;;17.37;8.10;;;;;;;24.08;97.34;99502.53;1778807;80;21540;-69
2022/08/17 05:06:33;;;;;;;13.88;7.83;;;;;;;24.13;97.56;99501.22;1779422;80;21072;-69
2022/08/17 05:09:00;;;;;;;17.48;7.58;;;;;;;24.18;96.66;99493.52;1778896;80;21130;-70
2022/08/17 05:11:27;;;;;;;11.30;7.00;;;;;;;24.25;96.06;99495.93;1778965;80;21088;-69
2022/08/17 05:13:56;;;;;;;14.58;7.30;;;;;;;24.37;95.32;99500.02;1778706;80;21040;-69
2022/08/17 05:16:24;;;;;;;15.75;6.80;;;;;;;24.53;94.03;99502.48;1778796;80;21029;-70
2022/08/17 05:18:50;;;;;;;16.07;7.33;;;;;;;24.54;91.90;99501.46;1778819;80;21075;-69
2022/08/17 05:21:19;;;;;;;11.68;6.85;;;;;;;24.28;92.66;99502.33;1778846;80;22181;-69
2022/08/17 05:23:45;;;;;;;17.92;7.17;;;;;;;24.00;94.40;99502.50;1778986;80;21116;-68
2022/08/17 05:26:16;;;;;;;11.18;7.12;;;;;;;23.74;94.94;99497.57;1778783;80;21037;-69
2022/08/17 05:28:44;;;;;;;13.65;7.30;;;;;;;23.45;96.25;99496.02;1778856;80;21005;-69
2022/08/17 05:31:11;;;;;;;20.65;7.78;;;;;;;23.24;98.11;99505.73;1778940;80;21520;-69
2022/08/17 05:33:40;;;;;;;23.85;8.80;;;;;;;23.18;98.90;99503.66;1778930;80;21873;-69
2022/08/17 05:36:09;;;;;;;17.52;8.35;;;;;;;23.18;100.00;99506.34;1782436;80;20977;-70
2022/08/17 05:38:35;;;;;;;15.83;8.30;;;;;;;23.19;100.00;99506.20;1784519;80;21600;-68
2022/08/17 05:41:04;;;;;;;15.32;8.43;;;;;;;23.15;99.88;99503.47;1784648;80;21012;-69
2022/08/17 05:43:35;;;;;;;20.30;8.00;;;;;;;23.10;99.62;99511.14;1784804;80;20988;-69
2022/08/17 05:46:24;;;;;;;13.48;7.37;;;;;;;23.03;100.00;99504.70;1784734;80;21257;-69
2022/08/17 05:49:06;;;;;;;13.35;8.70;;;;;;;23.18;100.00;99509.86;1784468;80;21592;-69
2022/08/17 05:52:01;;;;;;;16.00;8.45;;;;;;;23.44;98.69;99503.72;1784587;80;21045;-71
2022/08/17 05:55:04;;;;;;;12.45;7.90;;;;;;;23.75;98.48;99506.03;1784492;80;21060;-69
2022/08/17 05:58:00;;;;;;;16.90;7.80;;;;;;;24.14;97.38;99502.92;1784559;80;21048;-68
2022/08/17 06:00:37;;;;;;;15.32;8.43;;;;;;;24.49;95.67;99501.95;1784687;80;21122;-69
2022/08/17 06:03:36;;;;;;;15.15;7.60;;;;;;;25.14;93.87;99503.98;1783618;80;21072;-68
2022/08/17 06:06:26;;;;;;;17.62;8.00;;;;;;;25.77;90.44;99507.06;1784740;80;20982;-70
2022/08/17 06:09:15;;;;;;;14.23;7.80;;;;;;;26.45;86.74;99505.26;1773439;80;21001;-70
2022/08/17 06:12:26;;;;;;;14.87;7.42;;;;;;;27.05;79.85;99504.33;1784505;80;21103;-70
2022/08/17 06:14:58;;;;;;;13.68;7.15;;;;;;;27.36;80.36;99499.75;1784753;80;21538;-69
2022/08/17 06:17:25;;;;;;;17.70;6.83;;;;;;;27.90;78.83;99500.67;1783825;80;21180;-70
2022/08/17 06:19:59;;;;;;;11.45;7.60;;;;;;;28.45;76.42;99498.03;1784598;80;21060;-69
2022/08/17 06:22:31;;;;;;;16.87;7.00;;;;;;;28.96;71.02;99506.71;1784684;80;22228;-70
2022/08/17 06:25:09;;;;;;;12.85;7.22;;;;;;;29.01;71.56;99498.84;1756578;80;21137;-70
2022/08/17 06:27:49;;;;;;;18.98;7.62;;;;;;;29.13;68.71;99498.70;1784107;80;21132;-70
2022/08/17 06:30:26;;;;;;;14.93;7.12;;;;;;;28.99;69.32;99498.22;1784835;80;21060;-70
2022/08/17 06:33:01;;;;;;;10.75;6.58;;;;;;;29.19;69.68;99501.15;1784361;80;21076;-70
2022/08/17 06:35:42;;;;;;;11.80;6.70;;;;;;;29.51;68.88;99490.82;1783823;80;21052;-69
2022/08/17 06:38:32;;;;;;;24.65;6.87;;;;;;;29.62;60.63;99497.91;1784589;80;21173;-68
2022/08/17 06:41:12;;;;;;;11.08;5.97;;;;;;;29.58;55.68;99500.69;1784255;80;21151;-69
2022/08/17 06:43:57;;;;;;;13.35;6.47;;;;;;;29.91;55.85;99494.73;1784254;80;21084;-70
2022/08/17 06:46:47;;;;;;;11.88;6.50;;;;;;;30.36;54.83;99494.41;1782817;80;21065;-68
2022/08/17 06:49:48;;;;;;;12.95;6.62;;;;;;;30.69;53.44;99491.34;1784782;80;21021;-69
2022/08/17 06:52:26;;;;;;;11.25;6.47;;;;;;;30.95;52.47;99489.78;1784314;80;21021;-71
2022/08/17 06:55:10;;;;;;;16.17;6.47;;;;;;;30.96;51.61;99495.52;1754758;80;21124;-70
2022/08/17 06:57:44;;;;;;;18.05;6.97;;;;;;;31.03;51.78;99488.75;1753081;81;21510;-71
2022/08/17 07:00:22;;;;;;;16.45;5.97;;;;;;;31.04;50.75;99488.55;1753039;81;21029;-70
2022/08/17 07:03:06;;;;;;;13.68;5.95;;;;;;;31.15;50.96;99478.44;1752831;81;21002;-70
2022/08/17 07:05:51;;;;;;;12.85;6.15;;;;;;;31.52;51.63;99484.36;1753496;81;21044;-70
2022/08/17 07:08:32;;;;;;;15.80;6.75;;;;;;;31.95;50.41;99482.53;1753449;81;22174;-70
2022/08/17 07:11:16;;;;;;;13.90;6.22;;;;;;;32.27;49.01;99485.44;1753517;81;21498;-69
2022/08/17 07:14:17;;;;;;;10.32;6.05;;;;;;;32.40;49.46;99490.85;1716055;81;21105;-69
2022/08/17 07:16:50;;;;;;;9.50;5.97;;;;;;;32.65;47.89;99487.45;1753175;81;21032;-70
2022/08/17 07:19:21;;;;;;;11.68;5.47;;;;;;;32.92;46.64;99495.48;1753485;81;21047;-71
2022/08/17 07:22:09;;;;;;;14.58;5.80;;;;;;;32.83;47.10;99488.61;1753658;81;21169;-71
2022/08/17 07:24:50;;;;;;;10.65;5.15;;;;;;;32.99;46.12;99488.09;1753212;81;21069;-71
2022/08/17 07:27:26;;;;;;;10.98;5.70;;;;;;;33.22;45.71;99495.25;1753039;81;21568;-70
2022/08/17 07:30:07;;;;;;;12.40;5.45;;;;;;;33.35;44.38;99487.48;1753236;81;21537;-71
2022/08/17 07:32:37;;;;;;;;;;;;;;;33.27;43.18;99493.73;1756242;81;22100;-70
2022/08/17 07:35:18;;;;;;;12.18;5.05;;;;;;;33.03;43.86;99494.27;1753790;81;21101;-71
2022/08/17 07:38:10;;;;;;;12.68;5.53;;;;;;;32.90;44.70;99492.13;1747907;81;21051;-70
2022/08/17 07:40:41;;;;;;;11.83;6.03;;;;;;;32.81;43.31;99499.22;1753066;81;21072;-70
2022/08/17 07:43:19;;;;;;;15.18;6.75;;;;;;;32.43;43.88;99496.93;1753558;81;21545;-70
2022/08/17 07:49:06;;;;;;;14.47;6.10;;;;;;;32.46;44.68;99489.67;1753258;81;21562;-69
2022/08/17 07:51:49;;;;;;;13.90;6.12;;;;;;;32.73;42.29;99496.73;1751968;81;21071;-69
2022/08/17 07:54:34;;;;;;;13.72;5.75;;;;;;;32.84;42.03;99499.84;1774958;80;21620;-69
2022/08/17 07:57:09;;;;;;;11.12;5.62;;;;;;;32.77;42.16;99495.78;1784427;80;21545;-70
2022/08/17 07:59:58;;;;;;;9.20;5.87;;;;;;;32.72;42.06;99495.06;1781547;80;21024;-70
2022/08/17 08:02:41;;;;;;;10.93;5.67;;;;;;;32.54;42.58;99496.30;1784538;80;21759;-69
2022/08/17 08:05:26;;;;;;;9.90;5.70;;;;;;;32.52;42.12;99498.39;1756025;80;21616;-70
2022/08/17 08:08:07;;;;;;;14.78;5.85;;;;;;;32.56;42.17;99499.11;1784769;80;21028;-70
2022/08/17 08:10:41;;;;;;;12.07;5.55;;;;;;;32.75;41.25;99502.80;1782553;80;21013;-71
2022/08/17 08:13:22;;;;;;;11.35;5.53;;;;;;;32.62;41.70;99494.67;1784718;80;21060;-70
2022/08/17 08:15:54;;;;;;;13.18;6.35;;;;;;;32.31;41.71;99496.23;1784796;80;21089;-70
2022/08/17 08:18:31;;;;;;;13.75;6.30;;;;;;;32.04;42.81;99502.78;1784792;80;21576;-71
2022/08/17 08:21:02;;;;;;;15.28;6.17;;;;;;;31.79;42.67;99499.31;1784718;80;21100;-71
2022/08/17 08:23:52;;;;;;;14.28;6.40;;;;;;;31.47;44.44;99501.84;1782355;80;20985;-70
2022/08/17 08:27:10;;;;;;;27.40;7.67;;;;;;;31.45;45.21;99495.77;1782045;80;21001;-70
2022/08/17 08:29:51;;;;;;;13.43;6.53;;;;;;;31.45;45.17;99497.13;1784266;80;21228;-70
2022/08/17 08:32:26;;;;;;;19.27;6.97;;;;;;;31.44;45.18;99498.16;1784339;80;21036;-70
2022/08/17 08:35:25;;;;;;;13.15;6.30;;;;;;;31.26;45.56;99493.81;1756066;80;20989;-71
2022/08/17 08:38:22;;;;;;;14.13;7.15;;;;;;;31.12;44.78;99497.86;1716258;82;21088;-70
2022/08/17 08:40:54;;;;;;;10.35;7.03;;;;;;;30.92;45.50;99497.83;1777812;80;21049;-69
2022/08/17 08:43:45;;;;;;;15.00;6.45;;;;;;;30.73;45.73;99499.38;1778686;80;21125;-69
2022/08/17 08:46:40;;;;;;;15.18;7.03;;;;;;;30.80;45.57;99501.30;1779069;80;21121;-69
2022/08/17 08:49:38;;;;;;;16.70;7.25;;;;;;;31.19;45.83;99506.56;1778365;80;21533;-70
2022/08/17 08:52:10;;;;;;;18.20;7.17;;;;;;;31.53;45.60;99498.27;1779038;80;21068;-70
2022/08/17 08:54:53;;;;;;;15.28;6.28;;;;;;;31.98;43.77;99491.69;1751839;80;21513;-69
2022/08/17 08:57:36;;;;;;;19.98;7.37;;;;;;;32.27;44.67;99492.25;1748167;82;21064;-70
2022/08/17 09:00:14;;;;;;;16.48;6.37;;;;;;;32.71;42.06;99492.02;1747871;82;21069;-70
2022/08/17 09:03:35;;;;;;;15.60;6.37;;;;;;;32.98;40.25;99491.36;1747858;82;21021;-70
2022/08/17 09:06:44;;;;;;;13.25;7.60;;;;;;;33.15;41.34;99493.09;1747942;82;21513;-70
2022/08/17 09:09:56;;;;;;;10.35;6.35;;;;;;;33.36;41.54;99493.27;1747491;82;21548;-72
2022/08/17 09:12:43;;;;;;;17.15;5.85;;;;;;;33.49;40.10;99489.58;1747910;82;21537;-69
2022/08/17 09:15:18;;;;;;;16.42;6.75;;;;;;;33.56;37.93;99490.36;1747943;82;21041;-70
2022/08/17 09:18:05;;;;;;;13.78;6.33;;;;;;;33.63;38.93;99491.17;1748148;82;20997;-70
2022/08/17 09:20:43;;;;;;;16.65;6.08;;;;;;;33.60;39.35;99486.16;1745372;82;21005;-70
2022/08/17 09:23:15;;;;;;;13.32;5.85;;;;;;;33.60;39.88;99488.89;1744126;82;21084;-71
2022/08/17 09:25:49;;;;;;;14.50;6.85;;;;;;;33.89;39.91;99487.92;1747103;82;21028;-69
2022/08/17 09:28:24;;;;;;;11.05;5.85;;;;;;;33.95;39.57;99491.09;1748015;82;22052;-70
2022/08/17 09:30:54;;;;;;;12.58;6.28;;;;;;;33.85;39.09;99490.79;1747724;82;21065;-70
2022/08/17 09:33:25;;;;;;;17.82;6.72;;;;;;;33.66;39.26;99486.33;1748277;82;21081;-70
2022/08/17 09:36:15;;;;;;;17.60;6.65;;;;;;;33.17;39.92;99491.48;1748107;82;21069;-69
2022/08/17 09:39:02;;;;;;;11.83;6.22;;;;;;;32.86;40.49;99491.75;1748109;82;21803;-70
2022/08/17 09:41:54;;;;;;;15.65;7.05;;;;;;;32.48;41.28;99487.58;1747838;82;20989;-69
2022/08/17 09:44:38;;;;;;;12.03;7.20;;;;;;;32.20;42.49;99487.34;1748079;82;21599;-70
2022/08/17 09:47:31;;;;;;;16.25;6.62;;;;;;;31.88;43.21;99485.80;1747440;82;21108;-70
2022/08/17 09:50:13;;;;;;;11.25;6.45;;;;;;;31.73;44.53;99483.84;1748096;82;21088;-71
2022/08/17 09:52:41;;;;;;;12.03;6.42;;;;;;;31.73;44.89;99492.00;1748530;80;21525;-71
2022/08/17 09:55:07;;;;;;;14.73;7.60;;;;;;;31.95;45.05;99481.17;1778916;80;21466;-70
2022/08/17 09:58:15;;;;;;;15.43;7.17;;;;;;;32.26;44.18;99476.97;1748482;80;21017;-71
2022/08/17 10:00:53;;;;;;;18.67;7.17;;;;;;;32.61;43.68;99480.75;1717253;82;21088;-70
2022/08/17 10:03:49;;;;;;;20.08;7.00;;;;;;;32.76;43.37;99482.68;1772650;80;21009;-70
2022/08/17 10:06:37;;;;;;;20.75;6.85;;;;;;;32.96;42.38;99483.09;1778135;80;21106;-70
2022/08/17 10:09:14;;;;;;;18.07;6.67;;;;;;;33.16;41.71;99474.30;1778646;80;21113;-71
2022/08/17 10:15:13;;;;;;;13.15;6.55;;;;;;;33.30;40.67;99475.57;1778614;80;21434;-72
2022/08/17 10:17:49;;;;;;;;;;;;;;;33.29;40.93;99469.79;1781434;80;21030;-70
2022/08/17 10:20:47;;;;;;;15.58;6.65;;;;;;;33.22;40.73;99477.52;1778974;80;21035;-71
2022/08/17 10:26:14;;;;;;;13.25;5.70;;;;;;;33.35;41.46;99464.82;1779161;80;21044;-71
2022/08/17 10:28:49;;;;;;;11.55;6.33;;;;;;;33.76;40.69;99463.46;1778431;80;21076;-70
2022/08/17 10:31:29;;;;;;;16.15;6.90;;;;;;;34.20;39.85;99465.67;1778956;80;21092;-71
2022/08/17 10:34:17;;;;;;;17.35;6.95;;;;;;;34.24;38.67;99462.79;1778528;80;21090;-70
2022/08/17 10:37:07;;;;;;;15.98;6.20;;;;;;;34.34;38.79;99457.61;1778887;80;21024;-70
2022/08/17 10:39:48;;;;;;;15.75;6.30;;;;;;;34.58;39.14;99455.00;1778986;80;21080;-70
2022/08/17 10:42:35;;;;;;;11.43;5.95;;;;;;;34.64;38.50;99463.69;1778817;80;21096;-70
2022/08/17 10:45:25;;;;;;;21.48;6.65;;;;;;;34.46;38.50;99463.14;1775433;80;21613;-72
2022/08/17 10:47:59;;;;;;;;;;;;;;;34.56;38.69;99453.06;1773842;80;22193;-71
2022/08/17 10:51:06;;;;;;;12.13;5.78;;;;;;;34.63;38.04;99460.13;1778538;80;20198;-70
2022/08/17 10:53:42;;;;;;;15.53;6.65;;;;;;;34.64;38.57;99463.16;1765632;80;21032;-70
2022/08/17 10:56:16;;;;;;;10.70;6.42;;;;;;;34.76;38.04;99455.54;1748089;82;21587;-72
2022/08/17 10:58:59;;;;;;;15.45;6.50;;;;;;;34.81;37.84;99449.70;1747792;82;21097;-70
2022/08/17 11:01:36;;;;;;;14.15;6.53;;;;;;;35.04;37.53;99449.45;1748016;82;21097;-70
2022/08/17 11:04:34;;;;;;;11.20;6.25;;;;;;;35.18;37.05;99453.70;1747833;82;21037;-70
2022/08/17 11:07:12;;;;;;;14.28;6.30;;;;;;;35.04;36.62;99443.98;1747470;82;21076;-70
2022/08/17 11:10:09;;;;;;;15.08;6.47;;;;;;;34.82;37.09;99444.52;1747775;82;21069;-70
2022/08/17 11:13:11;;;;;;;11.88;6.55;;;;;;;34.65;37.63;99453.08;1724780;82;21520;-72
2022/08/17 11:15:59;;;;;;;14.28;6.28;;;;;;;34.29;37.29;99449.81;1747708;82;21262;-70
2022/08/17 11:18:37;;;;;;;14.63;6.28;;;;;;;33.75;38.65;99446.76;1747980;82;20985;-70
2022/08/17 11:21:21;;;;;;;17.25;7.00;;;;;;;33.89;38.89;99451.05;1747832;82;21049;-70
2022/08/17 11:24:02;;;;;;;15.60;6.28;;;;;;;33.98;39.79;99446.97;1745881;82;21301;-71
2022/08/17 11:26:32;;;;;;;11.68;5.90;;;;;;;33.98;39.59;99449.70;1744775;82;21037;-70
2022/08/17 11:29:08;;;;;;;12.65;6.00;;;;;;;33.85;39.45;99443.00;1747690;82;21154;-71
2022/08/17 11:31:43;;;;;;;12.18;6.45;;;;;;;33.81;39.79;99440.41;1747587;82;21041;-71
2022/08/17 11:34:22;;;;;;;11.50;5.85;;;;;;;34.01;40.18;99438.31;1747997;82;21010;-72
2022/08/17 11:37:00;;;;;;;16.48;6.55;;;;;;;34.14;39.04;99444.70;1747675;81;21562;-71
2022/08/17 11:39:54;;;;;;;38.53;8.75;;;;;;;34.24;36.67;99434.92;1747810;82;21486;-70
2022/08/17 11:42:35;;;;;;;14.93;6.47;;;;;;;34.08;37.84;99434.67;1747742;82;21134;-71
2022/08/17 11:45:39;;;;;;;14.60;5.85;;;;;;;33.96;38.17;99432.70;1747710;82;21548;-73
2022/08/17 11:51:54;;;;;;;13.40;6.72;;;;;;;33.92;38.78;99426.55;1748142;82;21020;-71
2022/08/17 11:54:38;;;;;;;13.03;6.08;;;;;;;34.24;38.76;99421.80;1770592;80;21547;-71
2022/08/17 11:57:30;;;;;;;12.25;5.72;;;;;;;34.36;37.88;99418.59;1779186;80;21171;-70
2022/08/17 12:00:10;;;;;;;10.28;6.00;;;;;;;34.13;38.72;99407.00;1778754;80;21021;-71
2022/08/17 12:02:44;;;;;;;11.83;6.08;;;;;;;34.01;38.11;99409.62;1774582;80;21068;-70
2022/08/17 12:05:16;;;;;;;17.00;5.95;;;;;;;33.87;37.92;99413.57;1748618;80;21073;-71
2022/08/17 12:07:53;;;;;;;14.47;6.15;;;;;;;33.63;37.60;99413.91;1779127;80;21033;-71
2022/08/17 12:10:30;;;;;;;14.35;5.62;;;;;;;33.40;38.16;99414.50;1778801;80;21670;-70
2022/08/17 12:12:53;;;;;;;17.07;5.95;;;;;;;33.27;38.13;99414.09;1778061;80;20978;-70
2022/08/17 12:15:31;;;;;;;13.45;6.17;;;;;;;33.21;38.46;99410.88;1778847;80;21018;-71
2022/08/17 12:17:57;;;;;;;13.25;5.55;;;;;;;33.22;38.47;99413.40;1779098;80;21005;-71
2022/08/17 12:20:38;;;;;;;14.60;5.70;;;;;;;33.18;38.73;99409.44;1778599;80;21107;-70
2022/08/17 12:23:10;;;;;;;12.20;5.92;;;;;;;33.19;38.50;99408.37;1778786;80;21184;-70
2022/08/17 12:26:08;;;;;;;18.15;6.08;;;;;;;33.18;38.32;99408.61;1778338;80;21084;-71
2022/08/17 12:28:37;;;;;;;18.05;6.62;;;;;;;33.14;38.02;99413.66;1778743;80;20994;-70
2022/08/17 12:31:07;;;;;;;17.98;6.20;;;;;;;32.44;38.65;99404.58;1749103;80;21030;-70